sensor_id;sensor_type;location;lat;lon;timestamp;temperature;humidity
25024;DHT22;13033;50.936;5.334;2022-10-31T00:01:00;16.40;96.80
25024;DHT22;13033;50.936;5.334;2022-10-31T00:03:25;16.20;97.30
25024;DHT22;13033;50.936;5.334;2022-10-31T00:05:51;16.10;97.70
25024;DHT22;13033;50.936;5.334;2022-10-31T00:08:18;15.90;99.10
25024;DHT22;13033;50.936;5.334;2022-10-31T00:10:45;15.90;99.90
25024;DHT22;13033;50.936;5.334;2022-10-31T00:13:11;16.00;99.90
25024;DHT22;13033;50.936;5.334;2022-10-31T00:15:38;16.10;99.90
25024;DHT22;13033;50.936;5.334;2022-10-31T00:18:06;16.20;99.90
25024;DHT22;13033;50.936;5.334;2022-10-31T00:20:32;16.40;97.60
25024;DHT22;13033;50.936;5.334;2022-10-31T00:22:58;16.40;96.80
25024;DHT22;13033;50.936;5.334;2022-10-31T00:25:25;16.30;96.30
25024;DHT22;13033;50.936;5.334;2022-10-31T00:27:51;16.30;97.70
25024;DHT22;13033;50.936;5.334;2022-10-31T00:30:16;16.10;98.40
25024;DHT22;13033;50.936;5.334;2022-10-31T00:32:42;16.10;98.80
25024;DHT22;13033;50.936;5.334;2022-10-31T00:35:08;16.20;98.70
25024;DHT22;13033;50.936;5.334;2022-10-31T00:37:33;16.10;99.30
25024;DHT22;13033;50.936;5.334;2022-10-31T00:39:59;16.10;99.40
25024;DHT22;13033;50.936;5.334;2022-10-31T00:42:25;15.90;99.90
25024;DHT22;13033;50.936;5.334;2022-10-31T00:44:50;15.80;99.90
25024;DHT22;13033;50.936;5.334;2022-10-31T00:47:16;15.80;99.90
25024;DHT22;13033;50.936;5.334;2022-10-31T00:49:42;15.70;99.90
25024;DHT22;13033;50.936;5.334;2022-10-31T00:52:07;15.60;99.90
25024;DHT22;13033;50.936;5.334;2022-10-31T00:54:33;15.50;99.90
25024;DHT22;13033;50.936;5.334;2022-10-31T00:56:58;15.60;99.90
25024;DHT22;13033;50.936;5.334;2022-10-31T00:59:24;15.50;99.90
25024;DHT22;13033;50.936;5.334;2022-10-31T01:01:50;15.60;99.90
25024;DHT22;13033;50.936;5.334;2022-10-31T01:04:15;15.70;99.90
25024;DHT22;13033;50.936;5.334;2022-10-31T01:06:41;15.60;99.90
25024;DHT22;13033;50.936;5.334;2022-10-31T01:09:07;15.70;99.90
25024;DHT22;13033;50.936;5.334;2022-10-31T01:11:33;15.80;99.90
25024;DHT22;13033;50.936;5.334;2022-10-31T01:13:58;15.70;99.90
25024;DHT22;13033;50.936;5.334;2022-10-31T01:16:26;15.70;99.90
25024;DHT22;13033;50.936;5.334;2022-10-31T01:18:52;15.70;99.90
25024;DHT22;13033;50.936;5.334;2022-10-31T01:21:21;15.80;99.90
25024;DHT22;13033;50.936;5.334;2022-10-31T01:23:48;15.90;99.90
25024;DHT22;13033;50.936;5.334;2022-10-31T01:26:16;15.80;99.10
25024;DHT22;13033;50.936;5.334;2022-10-31T01:28:56;15.80;99.90
25024;DHT22;13033;50.936;5.334;2022-10-31T01:31:25;15.70;99.90
25024;DHT22;13033;50.936;5.334;2022-10-31T01:33:51;15.80;99.90
25024;DHT22;13033;50.936;5.334;2022-10-31T01:36:22;15.80;99.90
25024;DHT22;13033;50.936;5.334;2022-10-31T01:38:49;15.70;99.90
25024;DHT22;13033;50.936;5.334;2022-10-31T01:41:19;15.60;99.90
25024;DHT22;13033;50.936;5.334;2022-10-31T01:46:18;15.50;99.90
25024;DHT22;13033;50.936;5.334;2022-10-31T01:48:45;15.50;99.90
25024;DHT22;13033;50.936;5.334;2022-10-31T01:51:12;15.40;99.90
25024;DHT22;13033;50.936;5.334;2022-10-31T01:53:39;15.40;99.90
25024;DHT22;13033;50.936;5.334;2022-10-31T01:56:06;15.20;99.90
25024;DHT22;13033;50.936;5.334;2022-10-31T01:58:32;15.10;99.90
25024;DHT22;13033;50.936;5.334;2022-10-31T02:00:59;15.20;99.90
25024;DHT22;13033;50.936;5.334;2022-10-31T02:03:26;15.10;99.90
25024;DHT22;13033;50.936;5.334;2022-10-31T02:05:54;15.20;99.90
25024;DHT22;13033;50.936;5.334;2022-10-31T02:08:25;15.10;99.90
25024;DHT22;13033;50.936;5.334;2022-10-31T02:10:52;15.20;99.90
25024;DHT22;13033;50.936;5.334;2022-10-31T02:13:18;15.20;99.90
25024;DHT22;13033;50.936;5.334;2022-10-31T02:15:48;15.20;99.90
25024;DHT22;13033;50.936;5.334;2022-10-31T02:18:15;15.10;99.90
25024;DHT22;13033;50.936;5.334;2022-10-31T02:21:33;15.10;99.90
25024;DHT22;13033;50.936;5.334;2022-10-31T02:27:18;15.30;99.90
25024;DHT22;13033;50.936;5.334;2022-10-31T02:30:04;15.40;99.90
25024;DHT22;13033;50.936;5.334;2022-10-31T02:32:43;15.20;99.90
25024;DHT22;13033;50.936;5.334;2022-10-31T02:38:13;15.00;99.90
25024;DHT22;13033;50.936;5.334;2022-10-31T02:46:55;15.00;99.90
25024;DHT22;13033;50.936;5.334;2022-10-31T02:52:30;14.90;99.90
25024;DHT22;13033;50.936;5.334;2022-10-31T02:54:57;14.90;99.90
25024;DHT22;13033;50.936;5.334;2022-10-31T02:57:30;15.00;99.90
25024;DHT22;13033;50.936;5.334;2022-10-31T03:00:02;15.20;99.90
25024;DHT22;13033;50.936;5.334;2022-10-31T03:10:25;14.70;99.90
25024;DHT22;13033;50.936;5.334;2022-10-31T03:15:53;14.70;99.90
25024;DHT22;13033;50.936;5.334;2022-10-31T03:18:28;14.70;99.90
25024;DHT22;13033;50.936;5.334;2022-10-31T03:23:30;14.70;99.90
25024;DHT22;13033;50.936;5.334;2022-10-31T03:25:58;14.70;99.90
25024;DHT22;13033;50.936;5.334;2022-10-31T03:28:34;14.70;99.90
25024;DHT22;13033;50.936;5.334;2022-10-31T03:31:03;14.70;99.90
25024;DHT22;13033;50.936;5.334;2022-10-31T03:33:32;14.70;99.90
25024;DHT22;13033;50.936;5.334;2022-10-31T03:36:02;14.80;99.90
25024;DHT22;13033;50.936;5.334;2022-10-31T03:38:29;14.70;99.90
25024;DHT22;13033;50.936;5.334;2022-10-31T03:40:58;14.60;99.90
25024;DHT22;13033;50.936;5.334;2022-10-31T03:43:30;14.80;99.90
25024;DHT22;13033;50.936;5.334;2022-10-31T03:45:57;14.70;99.90
25024;DHT22;13033;50.936;5.334;2022-10-31T03:48:23;14.70;99.90
25024;DHT22;13033;50.936;5.334;2022-10-31T03:51:15;14.60;99.90
25024;DHT22;13033;50.936;5.334;2022-10-31T03:53:50;14.60;99.90
25024;DHT22;13033;50.936;5.334;2022-10-31T03:56:33;14.60;99.90
25024;DHT22;13033;50.936;5.334;2022-10-31T03:59:02;14.60;99.90
25024;DHT22;13033;50.936;5.334;2022-10-31T04:01:31;14.60;99.90
25024;DHT22;13033;50.936;5.334;2022-10-31T04:03:59;14.50;99.90
25024;DHT22;13033;50.936;5.334;2022-10-31T04:06:25;14.50;99.90
25024;DHT22;13033;50.936;5.334;2022-10-31T04:08:56;14.50;99.90
25024;DHT22;13033;50.936;5.334;2022-10-31T04:11:27;14.40;99.90
25024;DHT22;13033;50.936;5.334;2022-10-31T04:13:54;14.30;99.90
25024;DHT22;13033;50.936;5.334;2022-10-31T04:16:23;14.40;99.90
25024;DHT22;13033;50.936;5.334;2022-10-31T04:18:50;14.50;99.90
25024;DHT22;13033;50.936;5.334;2022-10-31T04:21:15;14.60;99.90
25024;DHT22;13033;50.936;5.334;2022-10-31T04:23:42;14.60;99.90
25024;DHT22;13033;50.936;5.334;2022-10-31T04:26:11;14.60;99.90
25024;DHT22;13033;50.936;5.334;2022-10-31T04:28:37;14.50;99.90
25024;DHT22;13033;50.936;5.334;2022-10-31T04:31:02;14.30;99.90
25024;DHT22;13033;50.936;5.334;2022-10-31T04:33:28;14.50;99.90
25024;DHT22;13033;50.936;5.334;2022-10-31T04:35:53;14.50;99.90
25024;DHT22;13033;50.936;5.334;2022-10-31T04:38:19;14.60;99.90
25024;DHT22;13033;50.936;5.334;2022-10-31T04:40:45;14.60;99.90
25024;DHT22;13033;50.936;5.334;2022-10-31T04:43:11;14.50;99.90
25024;DHT22;13033;50.936;5.334;2022-10-31T04:45:37;14.50;99.90
25024;DHT22;13033;50.936;5.334;2022-10-31T04:48:03;14.40;99.90
25024;DHT22;13033;50.936;5.334;2022-10-31T04:50:29;14.20;99.90
25024;DHT22;13033;50.936;5.334;2022-10-31T04:52:54;14.20;99.90
25024;DHT22;13033;50.936;5.334;2022-10-31T04:55:20;14.30;99.90
25024;DHT22;13033;50.936;5.334;2022-10-31T04:57:49;14.20;99.90
25024;DHT22;13033;50.936;5.334;2022-10-31T05:00:20;14.10;99.90
25024;DHT22;13033;50.936;5.334;2022-10-31T05:02:48;14.10;99.90
25024;DHT22;13033;50.936;5.334;2022-10-31T05:05:16;14.00;99.90
25024;DHT22;13033;50.936;5.334;2022-10-31T05:07:42;14.10;99.90
25024;DHT22;13033;50.936;5.334;2022-10-31T05:10:10;14.00;99.90
25024;DHT22;13033;50.936;5.334;2022-10-31T05:12:37;14.00;99.90
25024;DHT22;13033;50.936;5.334;2022-10-31T05:15:03;13.90;99.90
25024;DHT22;13033;50.936;5.334;2022-10-31T05:17:30;14.00;99.90
25024;DHT22;13033;50.936;5.334;2022-10-31T05:19:56;13.90;99.90
25024;DHT22;13033;50.936;5.334;2022-10-31T05:22:22;14.00;99.90
25024;DHT22;13033;50.936;5.334;2022-10-31T05:24:48;14.00;99.90
25024;DHT22;13033;50.936;5.334;2022-10-31T05:27:13;14.00;99.90
25024;DHT22;13033;50.936;5.334;2022-10-31T05:29:39;14.00;99.90
25024;DHT22;13033;50.936;5.334;2022-10-31T05:32:04;14.00;99.90
25024;DHT22;13033;50.936;5.334;2022-10-31T05:34:30;13.90;99.90
25024;DHT22;13033;50.936;5.334;2022-10-31T05:36:56;13.90;99.90
25024;DHT22;13033;50.936;5.334;2022-10-31T05:39:21;14.10;99.90
25024;DHT22;13033;50.936;5.334;2022-10-31T05:41:47;14.10;99.90
25024;DHT22;13033;50.936;5.334;2022-10-31T05:44:12;14.20;99.90
25024;DHT22;13033;50.936;5.334;2022-10-31T05:46:38;14.30;99.90
25024;DHT22;13033;50.936;5.334;2022-10-31T05:49:04;14.40;99.90
25024;DHT22;13033;50.936;5.334;2022-10-31T05:51:29;14.50;99.90
25024;DHT22;13033;50.936;5.334;2022-10-31T05:53:55;14.60;99.90
25024;DHT22;13033;50.936;5.334;2022-10-31T05:56:20;14.60;99.90
25024;DHT22;13033;50.936;5.334;2022-10-31T05:58:46;14.60;99.90
25024;DHT22;13033;50.936;5.334;2022-10-31T06:01:12;14.60;99.90
25024;DHT22;13033;50.936;5.334;2022-10-31T06:03:37;14.50;99.90
25024;DHT22;13033;50.936;5.334;2022-10-31T06:06:03;14.40;99.90
25024;DHT22;13033;50.936;5.334;2022-10-31T06:08:29;14.30;99.90
25024;DHT22;13033;50.936;5.334;2022-10-31T06:10:54;14.40;99.90
25024;DHT22;13033;50.936;5.334;2022-10-31T06:13:21;14.30;99.90
25024;DHT22;13033;50.936;5.334;2022-10-31T06:15:46;14.30;99.90
25024;DHT22;13033;50.936;5.334;2022-10-31T06:18:12;14.30;99.90
25024;DHT22;13033;50.936;5.334;2022-10-31T06:20:37;14.30;99.90
25024;DHT22;13033;50.936;5.334;2022-10-31T06:23:03;14.20;99.90
25024;DHT22;13033;50.936;5.334;2022-10-31T06:25:29;14.20;99.90
25024;DHT22;13033;50.936;5.334;2022-10-31T06:27:56;14.20;99.90
25024;DHT22;13033;50.936;5.334;2022-10-31T06:30:21;14.20;99.90
25024;DHT22;13033;50.936;5.334;2022-10-31T06:32:47;14.30;99.90
25024;DHT22;13033;50.936;5.334;2022-10-31T06:35:13;14.30;99.90
25024;DHT22;13033;50.936;5.334;2022-10-31T06:37:38;14.30;99.90
25024;DHT22;13033;50.936;5.334;2022-10-31T06:40:04;14.00;99.90
25024;DHT22;13033;50.936;5.334;2022-10-31T06:42:30;13.90;99.90
25024;DHT22;13033;50.936;5.334;2022-10-31T06:44:56;14.10;99.90
25024;DHT22;13033;50.936;5.334;2022-10-31T06:47:21;14.20;99.90
25024;DHT22;13033;50.936;5.334;2022-10-31T06:49:47;14.00;99.90
25024;DHT22;13033;50.936;5.334;2022-10-31T06:52:13;13.90;99.90
25024;DHT22;13033;50.936;5.334;2022-10-31T06:54:38;13.80;99.90
25024;DHT22;13033;50.936;5.334;2022-10-31T06:57:04;13.80;99.90
25024;DHT22;13033;50.936;5.334;2022-10-31T06:59:29;14.00;99.90
25024;DHT22;13033;50.936;5.334;2022-10-31T07:01:57;14.20;99.90
25024;DHT22;13033;50.936;5.334;2022-10-31T07:04:22;14.20;99.90
25024;DHT22;13033;50.936;5.334;2022-10-31T07:06:50;14.10;99.90
25024;DHT22;13033;50.936;5.334;2022-10-31T07:09:16;14.10;99.90
25024;DHT22;13033;50.936;5.334;2022-10-31T07:11:42;14.20;99.90
25024;DHT22;13033;50.936;5.334;2022-10-31T07:14:08;14.30;99.90
25024;DHT22;13033;50.936;5.334;2022-10-31T07:16:33;14.40;99.90
25024;DHT22;13033;50.936;5.334;2022-10-31T07:18:59;14.40;99.90
25024;DHT22;13033;50.936;5.334;2022-10-31T07:21:24;14.40;99.90
25024;DHT22;13033;50.936;5.334;2022-10-31T07:23:50;14.30;99.90
25024;DHT22;13033;50.936;5.334;2022-10-31T07:26:16;14.20;99.90
25024;DHT22;13033;50.936;5.334;2022-10-31T07:28:41;14.30;99.90
25024;DHT22;13033;50.936;5.334;2022-10-31T07:31:07;14.10;99.90
25024;DHT22;13033;50.936;5.334;2022-10-31T07:33:33;14.00;99.90
25024;DHT22;13033;50.936;5.334;2022-10-31T07:35:58;14.10;99.90
25024;DHT22;13033;50.936;5.334;2022-10-31T07:38:25;14.10;99.90
25024;DHT22;13033;50.936;5.334;2022-10-31T07:40:51;14.30;99.90
25024;DHT22;13033;50.936;5.334;2022-10-31T07:43:20;14.30;99.90
25024;DHT22;13033;50.936;5.334;2022-10-31T07:45:52;14.50;99.90
25024;DHT22;13033;50.936;5.334;2022-10-31T07:48:19;14.70;99.90
25024;DHT22;13033;50.936;5.334;2022-10-31T07:50:44;14.70;99.70
25024;DHT22;13033;50.936;5.334;2022-10-31T07:53:11;14.70;99.50
25024;DHT22;13033;50.936;5.334;2022-10-31T07:55:37;14.70;99.80
25024;DHT22;13033;50.936;5.334;2022-10-31T07:58:12;14.60;99.80
25024;DHT22;13033;50.936;5.334;2022-10-31T08:00:39;14.70;99.90
25024;DHT22;13033;50.936;5.334;2022-10-31T08:05:32;14.60;99.90
25024;DHT22;13033;50.936;5.334;2022-10-31T08:07:58;14.60;99.90
25024;DHT22;13033;50.936;5.334;2022-10-31T08:10:25;14.60;99.90
25024;DHT22;13033;50.936;5.334;2022-10-31T08:13:02;14.80;99.90
25024;DHT22;13033;50.936;5.334;2022-10-31T08:15:28;15.10;99.90
25024;DHT22;13033;50.936;5.334;2022-10-31T08:17:54;15.30;97.30
25024;DHT22;13033;50.936;5.334;2022-10-31T08:20:21;15.50;94.50
25024;DHT22;13033;50.936;5.334;2022-10-31T08:22:57;15.70;91.30
25024;DHT22;13033;50.936;5.334;2022-10-31T08:25:24;15.70;90.10
25024;DHT22;13033;50.936;5.334;2022-10-31T08:27:51;15.80;87.70
25024;DHT22;13033;50.936;5.334;2022-10-31T08:30:19;15.60;88.90
25024;DHT22;13033;50.936;5.334;2022-10-31T08:32:45;15.50;91.90
25024;DHT22;13033;50.936;5.334;2022-10-31T08:35:11;15.50;92.40
25024;DHT22;13033;50.936;5.334;2022-10-31T08:37:36;15.50;92.90
25024;DHT22;13033;50.936;5.334;2022-10-31T08:40:02;15.50;93.90
25024;DHT22;13033;50.936;5.334;2022-10-31T08:42:28;15.40;95.10
25024;DHT22;13033;50.936;5.334;2022-10-31T08:44:54;15.30;96.80
25024;DHT22;13033;50.936;5.334;2022-10-31T08:47:19;15.30;97.60
25024;DHT22;13033;50.936;5.334;2022-10-31T08:49:45;15.30;97.80
25024;DHT22;13033;50.936;5.334;2022-10-31T08:52:10;15.50;97.80
25024;DHT22;13033;50.936;5.334;2022-10-31T08:54:36;15.70;96.10
25024;DHT22;13033;50.936;5.334;2022-10-31T08:57:02;16.00;93.10
25024;DHT22;13033;50.936;5.334;2022-10-31T08:59:27;16.20;88.20
25024;DHT22;13033;50.936;5.334;2022-10-31T09:01:53;16.40;85.50
25024;DHT22;13033;50.936;5.334;2022-10-31T09:04:18;16.50;83.10
25024;DHT22;13033;50.936;5.334;2022-10-31T09:06:44;16.60;81.70
25024;DHT22;13033;50.936;5.334;2022-10-31T09:09:09;16.60;77.10
25024;DHT22;13033;50.936;5.334;2022-10-31T09:11:35;16.30;82.00
25024;DHT22;13033;50.936;5.334;2022-10-31T09:14:01;16.00;87.60
25024;DHT22;13033;50.936;5.334;2022-10-31T09:16:26;15.50;97.00
25024;DHT22;13033;50.936;5.334;2022-10-31T09:18:52;15.70;96.70
25024;DHT22;13033;50.936;5.334;2022-10-31T09:21:17;16.00;94.40
25024;DHT22;13033;50.936;5.334;2022-10-31T09:23:43;16.00;92.50
25024;DHT22;13033;50.936;5.334;2022-10-31T09:26:08;16.10;92.30
25024;DHT22;13033;50.936;5.334;2022-10-31T09:28:34;16.30;90.40
25024;DHT22;13033;50.936;5.334;2022-10-31T09:31:00;16.10;92.50
25024;DHT22;13033;50.936;5.334;2022-10-31T09:33:26;16.00;94.30
25024;DHT22;13033;50.936;5.334;2022-10-31T09:35:51;15.80;97.00
25024;DHT22;13033;50.936;5.334;2022-10-31T09:38:19;15.70;97.80
25024;DHT22;13033;50.936;5.334;2022-10-31T09:44:00;15.80;99.10
25024;DHT22;13033;50.936;5.334;2022-10-31T09:46:52;15.60;99.90
25024;DHT22;13033;50.936;5.334;2022-10-31T09:52:12;15.90;99.80
25024;DHT22;13033;50.936;5.334;2022-10-31T09:54:46;16.00;98.90
25024;DHT22;13033;50.936;5.334;2022-10-31T09:57:19;16.20;97.60
25024;DHT22;13033;50.936;5.334;2022-10-31T09:59:48;16.60;93.70
25024;DHT22;13033;50.936;5.334;2022-10-31T10:02:31;16.80;90.60
25024;DHT22;13033;50.936;5.334;2022-10-31T10:05:04;16.80;90.20
25024;DHT22;13033;50.936;5.334;2022-10-31T10:07:35;17.10;83.00
25024;DHT22;13033;50.936;5.334;2022-10-31T10:10:28;17.20;73.80
25024;DHT22;13033;50.936;5.334;2022-10-31T10:16:03;17.40;66.50
25024;DHT22;13033;50.936;5.334;2022-10-31T10:24:24;17.40;62.30
25024;DHT22;13033;50.936;5.334;2022-10-31T10:32:36;17.50;63.90
25024;DHT22;13033;50.936;5.334;2022-10-31T10:37:49;17.80;54.80
25024;DHT22;13033;50.936;5.334;2022-10-31T10:40:18;17.90;48.60
25024;DHT22;13033;50.936;5.334;2022-10-31T10:43:41;17.60;54.30
25024;DHT22;13033;50.936;5.334;2022-10-31T10:46:05;17.80;54.70
25024;DHT22;13033;50.936;5.334;2022-10-31T10:49:18;18.10;45.10
25024;DHT22;13033;50.936;5.334;2022-10-31T10:51:57;18.40;41.80
25024;DHT22;13033;50.936;5.334;2022-10-31T10:54:38;18.70;33.70
25024;DHT22;13033;50.936;5.334;2022-10-31T11:00:24;19.20;14.60
25024;DHT22;13033;50.936;5.334;2022-10-31T11:02:51;19.40;8.80
25024;DHT22;13033;50.936;5.334;2022-10-31T11:08:03;19.30;7.60
25024;DHT22;13033;50.936;5.334;2022-10-31T11:10:29;19.20;9.60
25024;DHT22;13033;50.936;5.334;2022-10-31T11:16:02;19.20;5.40
25024;DHT22;13033;50.936;5.334;2022-10-31T11:18:37;19.00;10.60
25024;DHT22;13033;50.936;5.334;2022-10-31T11:21:04;19.00;13.60
25024;DHT22;13033;50.936;5.334;2022-10-31T11:23:31;19.10;15.10
25024;DHT22;13033;50.936;5.334;2022-10-31T11:26:01;19.00;15.30
25024;DHT22;13033;50.936;5.334;2022-10-31T11:28:28;19.10;16.40
25024;DHT22;13033;50.936;5.334;2022-10-31T11:30:57;19.20;11.30
25024;DHT22;13033;50.936;5.334;2022-10-31T11:33:28;18.90;17.40
25024;DHT22;13033;50.936;5.334;2022-10-31T11:35:55;19.10;18.40
25024;DHT22;13033;50.936;5.334;2022-10-31T11:38:24;19.30;15.30
25024;DHT22;13033;50.936;5.334;2022-10-31T11:43:56;19.50;1.00
25024;DHT22;13033;50.936;5.334;2022-10-31T11:46:41;19.70;1.00
25024;DHT22;13033;50.936;5.334;2022-10-31T11:49:20;19.70;1.00
25024;DHT22;13033;50.936;5.334;2022-10-31T11:51:54;20.00;1.00
25024;DHT22;13033;50.936;5.334;2022-10-31T11:54:32;20.00;1.00
25024;DHT22;13033;50.936;5.334;2022-10-31T11:57:01;20.00;1.00
25024;DHT22;13033;50.936;5.334;2022-10-31T11:59:30;19.70;1.00
25024;DHT22;13033;50.936;5.334;2022-10-31T12:01:58;19.70;1.00
25024;DHT22;13033;50.936;5.334;2022-10-31T12:04:46;19.70;1.00
25024;DHT22;13033;50.936;5.334;2022-10-31T12:07:12;19.40;1.00
25024;DHT22;13033;50.936;5.334;2022-10-31T12:09:38;19.30;1.00
25024;DHT22;13033;50.936;5.334;2022-10-31T12:12:21;19.40;1.00
25024;DHT22;13033;50.936;5.334;2022-10-31T12:15:13;19.30;1.00
25024;DHT22;13033;50.936;5.334;2022-10-31T12:18:03;19.40;1.00
25024;DHT22;13033;50.936;5.334;2022-10-31T12:26:34;19.50;1.00
25024;DHT22;13033;50.936;5.334;2022-10-31T12:37:40;19.50;1.00
25024;DHT22;13033;50.936;5.334;2022-10-31T12:45:58;19.80;1.00
25024;DHT22;13033;50.936;5.334;2022-10-31T12:51:46;20.00;1.00
25024;DHT22;13033;50.936;5.334;2022-10-31T12:54:31;20.10;1.00
25024;DHT22;13033;50.936;5.334;2022-10-31T12:57:29;20.20;1.00
25024;DHT22;13033;50.936;5.334;2022-10-31T13:00:12;20.40;1.00
25024;DHT22;13033;50.936;5.334;2022-10-31T13:02:58;20.40;1.00
25024;DHT22;13033;50.936;5.334;2022-10-31T13:05:41;20.20;1.00
25024;DHT22;13033;50.936;5.334;2022-10-31T13:08:24;20.30;1.00
25024;DHT22;13033;50.936;5.334;2022-10-31T13:16:24;20.40;1.00
25024;DHT22;13033;50.936;5.334;2022-10-31T13:18:56;20.40;1.00
25024;DHT22;13033;50.936;5.334;2022-10-31T13:21:27;20.50;1.00
25024;DHT22;13033;50.936;5.334;2022-10-31T13:23:55;20.60;1.00
25024;DHT22;13033;50.936;5.334;2022-10-31T13:26:38;20.40;1.00
25024;DHT22;13033;50.936;5.334;2022-10-31T13:29:17;20.50;1.00
25024;DHT22;13033;50.936;5.334;2022-10-31T13:31:44;20.60;1.00
25024;DHT22;13033;50.936;5.334;2022-10-31T13:34:42;20.70;1.00
25024;DHT22;13033;50.936;5.334;2022-10-31T13:37:39;20.80;1.00
25024;DHT22;13033;50.936;5.334;2022-10-31T13:40:32;20.90;1.00
25024;DHT22;13033;50.936;5.334;2022-10-31T13:43:47;20.80;1.00
25024;DHT22;13033;50.936;5.334;2022-10-31T13:45:50;20.80;1.00
25024;DHT22;13033;50.936;5.334;2022-10-31T13:50:43;21.00;1.00
25024;DHT22;13033;50.936;5.334;2022-10-31T13:53:21;21.20;1.00
25024;DHT22;13033;50.936;5.334;2022-10-31T13:56:03;21.40;1.00
25024;DHT22;13033;50.936;5.334;2022-10-31T13:58:31;21.00;1.00
25024;DHT22;13033;50.936;5.334;2022-10-31T14:03:43;21.30;1.00
25024;DHT22;13033;50.936;5.334;2022-10-31T14:06:10;21.20;1.00
25024;DHT22;13033;50.936;5.334;2022-10-31T14:08:41;21.10;1.00
25024;DHT22;13033;50.936;5.334;2022-10-31T14:11:09;21.10;1.00
25024;DHT22;13033;50.936;5.334;2022-10-31T14:13:44;21.00;1.00
25024;DHT22;13033;50.936;5.334;2022-10-31T14:16:23;20.90;1.00
25024;DHT22;13033;50.936;5.334;2022-10-31T14:21:29;21.10;1.00
25024;DHT22;13033;50.936;5.334;2022-10-31T14:23:56;20.90;1.00
25024;DHT22;13033;50.936;5.334;2022-10-31T14:34:28;20.90;1.00
25024;DHT22;13033;50.936;5.334;2022-10-31T14:48:11;20.90;1.00
25024;DHT22;13033;50.936;5.334;2022-10-31T14:50:48;21.40;1.00
25024;DHT22;13033;50.936;5.334;2022-10-31T14:53:22;22.00;1.00
25024;DHT22;13033;50.936;5.334;2022-10-31T14:55:53;22.50;1.00
25024;DHT22;13033;50.936;5.334;2022-10-31T14:58:38;22.70;1.00
25024;DHT22;13033;50.936;5.334;2022-10-31T15:01:05;22.60;1.00
25024;DHT22;13033;50.936;5.334;2022-10-31T15:03:40;22.10;1.00
25024;DHT22;13033;50.936;5.334;2022-10-31T15:06:13;22.10;1.00
25024;DHT22;13033;50.936;5.334;2022-10-31T15:08:44;22.30;1.00
25024;DHT22;13033;50.936;5.334;2022-10-31T15:13:45;22.00;1.00
25024;DHT22;13033;50.936;5.334;2022-10-31T15:16:12;21.60;1.00
25024;DHT22;13033;50.936;5.334;2022-10-31T15:18:48;21.20;1.00
25024;DHT22;13033;50.936;5.334;2022-10-31T15:21:16;20.90;1.00
25024;DHT22;13033;50.936;5.334;2022-10-31T15:23:42;20.70;1.00
25024;DHT22;13033;50.936;5.334;2022-10-31T15:26:17;20.50;1.00
25024;DHT22;13033;50.936;5.334;2022-10-31T15:28:43;20.40;4.10
25024;DHT22;13033;50.936;5.334;2022-10-31T15:31:18;20.30;6.50
25024;DHT22;13033;50.936;5.334;2022-10-31T15:33:47;20.20;11.00
25024;DHT22;13033;50.936;5.334;2022-10-31T15:36:22;20.20;12.90
25024;DHT22;13033;50.936;5.334;2022-10-31T15:38:49;20.10;15.50
25024;DHT22;13033;50.936;5.334;2022-10-31T15:41:51;20.00;17.30
25024;DHT22;13033;50.936;5.334;2022-10-31T15:47:01;19.80;20.00
25024;DHT22;13033;50.936;5.334;2022-10-31T15:52:14;19.70;2.70
25024;DHT22;13033;50.936;5.334;2022-10-31T15:54:46;19.60;1.00
25024;DHT22;13033;50.936;5.334;2022-10-31T15:57:12;19.60;1.00
25024;DHT22;13033;50.936;5.334;2022-10-31T15:59:41;19.70;1.00
25024;DHT22;13033;50.936;5.334;2022-10-31T16:02:10;19.70;1.00
25024;DHT22;13033;50.936;5.334;2022-10-31T16:04:36;19.70;1.00
25024;DHT22;13033;50.936;5.334;2022-10-31T16:07:15;19.60;1.00
25024;DHT22;13033;50.936;5.334;2022-10-31T16:10:21;19.50;1.00
25024;DHT22;13033;50.936;5.334;2022-10-31T16:12:48;19.50;1.00
25024;DHT22;13033;50.936;5.334;2022-10-31T16:15:15;19.50;1.00
25024;DHT22;13033;50.936;5.334;2022-10-31T16:17:43;19.30;1.00
25024;DHT22;13033;50.936;5.334;2022-10-31T16:20:25;19.30;1.00
25024;DHT22;13033;50.936;5.334;2022-10-31T16:22:53;19.10;1.00
25024;DHT22;13033;50.936;5.334;2022-10-31T16:25:34;19.10;1.00
25024;DHT22;13033;50.936;5.334;2022-10-31T16:28:15;19.10;1.00
25024;DHT22;13033;50.936;5.334;2022-10-31T16:30:43;18.80;1.00
25024;DHT22;13033;50.936;5.334;2022-10-31T16:33:27;18.80;1.00
25024;DHT22;13033;50.936;5.334;2022-10-31T16:35:55;18.80;1.00
25024;DHT22;13033;50.936;5.334;2022-10-31T16:38:21;18.70;1.00
25024;DHT22;13033;50.936;5.334;2022-10-31T16:40:47;18.70;1.00
25024;DHT22;13033;50.936;5.334;2022-10-31T16:43:15;18.70;1.00
25024;DHT22;13033;50.936;5.334;2022-10-31T16:45:47;18.70;1.00
25024;DHT22;13033;50.936;5.334;2022-10-31T16:48:21;18.70;1.00
25024;DHT22;13033;50.936;5.334;2022-10-31T16:50:49;18.70;1.00
25024;DHT22;13033;50.936;5.334;2022-10-31T16:53:15;18.70;1.00
25024;DHT22;13033;50.936;5.334;2022-10-31T16:55:57;18.70;1.00
25024;DHT22;13033;50.936;5.334;2022-10-31T16:58:28;18.60;1.00
25024;DHT22;13033;50.936;5.334;2022-10-31T17:00:55;18.50;1.00
25024;DHT22;13033;50.936;5.334;2022-10-31T17:03:21;18.30;1.00
25024;DHT22;13033;50.936;5.334;2022-10-31T17:05:47;18.30;1.00
25024;DHT22;13033;50.936;5.334;2022-10-31T17:08:13;18.20;1.00
25024;DHT22;13033;50.936;5.334;2022-10-31T17:10:39;18.10;1.00
25024;DHT22;13033;50.936;5.334;2022-10-31T17:13:07;18.10;1.00
25024;DHT22;13033;50.936;5.334;2022-10-31T17:15:41;18.20;1.00
25024;DHT22;13033;50.936;5.334;2022-10-31T17:18:14;18.20;1.00
25024;DHT22;13033;50.936;5.334;2022-10-31T17:20:41;18.10;1.00
25024;DHT22;13033;50.936;5.334;2022-10-31T17:23:09;18.10;1.00
25024;DHT22;13033;50.936;5.334;2022-10-31T17:25:35;18.10;1.00
25024;DHT22;13033;50.936;5.334;2022-10-31T17:28:01;18.00;1.00
25024;DHT22;13033;50.936;5.334;2022-10-31T17:30:27;18.00;1.00
25024;DHT22;13033;50.936;5.334;2022-10-31T17:32:53;17.90;1.00
25024;DHT22;13033;50.936;5.334;2022-10-31T17:35:20;17.90;1.00
25024;DHT22;13033;50.936;5.334;2022-10-31T17:37:46;17.90;1.00
25024;DHT22;13033;50.936;5.334;2022-10-31T17:40:15;17.90;1.00
25024;DHT22;13033;50.936;5.334;2022-10-31T17:42:40;17.90;1.00
25024;DHT22;13033;50.936;5.334;2022-10-31T17:45:07;17.80;1.00
25024;DHT22;13033;50.936;5.334;2022-10-31T17:47:34;17.80;1.00
25024;DHT22;13033;50.936;5.334;2022-10-31T17:50:00;17.70;1.00
25024;DHT22;13033;50.936;5.334;2022-10-31T17:52:26;17.60;1.00
25024;DHT22;13033;50.936;5.334;2022-10-31T17:54:51;17.60;1.00
25024;DHT22;13033;50.936;5.334;2022-10-31T17:57:17;17.50;1.00
25024;DHT22;13033;50.936;5.334;2022-10-31T17:59:42;17.70;1.00
25024;DHT22;13033;50.936;5.334;2022-10-31T18:02:11;17.70;1.00
25024;DHT22;13033;50.936;5.334;2022-10-31T18:04:37;17.80;1.00